createdAt,value
2018-06-25T00:02:11.936Z,2.30
2018-06-25T00:04:39.805Z,1.83
2018-06-25T00:07:07.721Z,1.80
2018-06-25T00:09:35.585Z,1.90
2018-06-25T00:12:03.548Z,1.87
2018-06-25T00:14:31.421Z,1.90
2018-06-25T00:16:59.295Z,1.90
2018-06-25T00:19:27.229Z,2.43
2018-06-25T00:21:55.089Z,2.17
2018-06-25T00:24:23.053Z,2.77
2018-06-25T00:26:51.001Z,2.63
2018-06-25T00:29:22.712Z,2.30
2018-06-25T00:31:50.662Z,2.03
2018-06-25T00:34:18.557Z,2.73
2018-06-25T00:36:46.449Z,2.10
2018-06-25T00:39:14.473Z,1.80
2018-06-25T00:41:42.354Z,2.23
2018-06-25T00:44:10.310Z,2.20
2018-06-25T00:46:38.169Z,2.00
2018-06-25T00:49:06.250Z,1.90
2018-06-25T00:51:34.112Z,1.97
2018-06-25T00:54:02.087Z,2.10
2018-06-25T00:56:30.024Z,3.37
2018-06-25T00:59:15.066Z,2.00
2018-06-25T01:01:43.050Z,2.10
2018-06-25T01:04:11.126Z,2.60
2018-06-25T01:06:39.066Z,2.70
2018-06-25T01:09:09.578Z,4.03
2018-06-25T01:11:41.116Z,2.50
2018-06-25T01:14:09.128Z,2.83
2018-06-25T01:16:37.048Z,3.60
2018-06-25T01:19:04.965Z,4.43
2018-06-25T01:21:32.929Z,3.10
2018-06-25T01:24:01.189Z,2.50
2018-06-25T01:26:29.163Z,3.10
2018-06-25T01:28:57.004Z,3.57
2018-06-25T01:31:24.942Z,3.30
2018-06-25T01:33:52.814Z,3.70
2018-06-25T01:36:20.708Z,2.97
2018-06-25T01:38:48.597Z,3.30
2018-06-25T01:41:16.481Z,3.20
2018-06-25T01:43:44.364Z,3.40
2018-06-25T01:46:12.349Z,3.73
2018-06-25T01:48:40.245Z,3.23
2018-06-25T01:51:08.070Z,3.70
2018-06-25T01:53:36.045Z,3.80
2018-06-25T01:56:04.453Z,3.47
2018-06-25T01:58:32.441Z,3.33
2018-06-25T02:01:00.320Z,3.30
2018-06-25T02:03:28.225Z,4.50
2018-06-25T02:05:56.147Z,4.23
2018-06-25T02:08:24.045Z,3.97
2018-06-25T02:10:51.952Z,3.80
2018-06-25T02:13:19.908Z,3.33
2018-06-25T02:15:47.837Z,3.70
2018-06-25T02:18:15.834Z,3.83
2018-06-25T02:20:43.769Z,4.03
2018-06-25T02:23:11.733Z,4.00
2018-06-25T02:25:39.636Z,3.83
2018-06-25T02:28:07.630Z,4.73
2018-06-25T02:30:35.641Z,4.47
2018-06-25T02:33:03.719Z,3.33
2018-06-25T02:35:31.637Z,4.30
2018-06-25T02:37:59.675Z,3.90
2018-06-25T02:40:27.498Z,4.00
2018-06-25T02:42:55.461Z,3.97
2018-06-25T02:45:23.377Z,4.40
2018-06-25T02:47:51.283Z,4.77
2018-06-25T02:50:19.161Z,4.27
2018-06-25T02:52:47.046Z,4.07
2018-06-25T02:55:14.972Z,3.87
2018-06-25T02:57:42.840Z,4.23
2018-06-25T03:00:10.806Z,4.90
2018-06-25T03:02:38.769Z,4.70
2018-06-25T03:05:07.280Z,5.47
2018-06-25T03:07:35.211Z,5.00
2018-06-25T03:10:03.204Z,5.27
2018-06-25T03:12:31.245Z,5.10
2018-06-25T03:14:59.143Z,5.73
2018-06-25T03:17:27.095Z,5.27
2018-06-25T03:19:54.989Z,5.77
2018-06-25T03:22:22.849Z,5.83
2018-06-25T03:24:50.913Z,5.63
2018-06-25T03:27:18.848Z,5.97
2018-06-25T03:29:46.772Z,5.97
2018-06-25T03:32:14.737Z,6.40
2018-06-25T03:34:42.656Z,6.23
2018-06-25T03:37:10.605Z,5.87
2018-06-25T03:39:38.635Z,5.87
2018-06-25T03:42:06.701Z,7.77
2018-06-25T03:44:34.645Z,5.57
2018-06-25T03:47:02.550Z,6.40
2018-06-25T03:49:30.520Z,6.10
2018-06-25T03:51:58.517Z,5.20
2018-06-25T03:54:26.429Z,6.60
2018-06-25T03:56:54.360Z,5.57
2018-06-25T03:59:22.283Z,6.00
2018-06-25T04:01:50.205Z,5.70
2018-06-25T04:04:18.018Z,5.73
2018-06-25T04:06:45.987Z,6.00
2018-06-25T04:09:13.941Z,6.17
2018-06-25T04:11:41.942Z,6.40
2018-06-25T04:14:10.137Z,6.40
2018-06-25T04:16:38.057Z,6.43
2018-06-25T04:19:09.505Z,6.27
2018-06-25T04:21:37.597Z,6.50
2018-06-25T04:24:05.537Z,7.10
2018-06-25T04:26:33.613Z,6.30
2018-06-25T04:29:02.178Z,6.33
2018-06-25T04:31:30.336Z,6.00
2018-06-25T04:33:58.605Z,6.57
2018-06-25T04:36:26.521Z,8.47
2018-06-25T04:38:54.429Z,6.83
2018-06-25T04:41:22.429Z,7.07
2018-06-25T04:43:50.542Z,6.93
2018-06-25T04:46:18.379Z,6.60
2018-06-25T04:48:46.274Z,6.93
2018-06-25T04:51:14.193Z,6.83
2018-06-25T04:53:42.657Z,8.10
2018-06-25T04:56:11.003Z,6.40
2018-06-25T04:58:38.918Z,6.97
2018-06-25T05:01:08.654Z,7.30
2018-06-25T05:03:36.626Z,7.93
2018-06-25T05:06:04.642Z,5.87
2018-06-25T05:08:32.570Z,6.97
2018-06-25T05:11:01.051Z,7.37
2018-06-25T05:13:29.013Z,6.33
2018-06-25T05:15:57.205Z,6.77
2018-06-25T05:18:25.796Z,6.37
2018-06-25T05:20:53.729Z,6.47
2018-06-25T05:23:21.684Z,6.23
2018-06-25T05:25:49.701Z,6.23
2018-06-25T05:28:17.667Z,7.17
2018-06-25T05:30:45.613Z,6.17
2018-06-25T05:33:13.446Z,5.00
2018-06-25T05:35:41.421Z,6.53
2018-06-25T05:38:09.474Z,6.27
2018-06-25T05:40:37.447Z,5.00
2018-06-25T05:43:09.078Z,4.83
2018-06-25T05:45:37.099Z,6.10
2018-06-25T05:48:05.026Z,6.47
2018-06-25T05:50:32.949Z,6.33
2018-06-25T05:53:00.818Z,6.47
2018-06-25T05:55:29.052Z,4.20
2018-06-25T05:57:57.212Z,4.00
2018-06-25T06:00:25.142Z,4.70
2018-06-25T06:02:53.077Z,4.50
2018-06-25T06:05:21.015Z,4.30
2018-06-25T06:07:49.086Z,4.20
2018-06-25T06:10:17.025Z,4.33
2018-06-25T06:12:44.942Z,4.20
2018-06-25T06:15:12.905Z,4.30
2018-06-25T06:17:40.856Z,2.97
2018-06-25T06:20:08.725Z,3.10
2018-06-25T06:22:36.690Z,2.80
2018-06-25T06:25:04.694Z,2.40
2018-06-25T06:27:32.597Z,2.80
2018-06-25T06:30:00.493Z,2.43
2018-06-25T06:32:28.437Z,2.50
2018-06-25T06:34:56.338Z,2.10
2018-06-25T06:37:24.257Z,2.27
2018-06-25T06:39:52.257Z,4.37
2018-06-25T06:42:20.154Z,2.87
2018-06-25T06:44:48.132Z,1.37
2018-06-25T06:47:16.045Z,1.63
2018-06-25T06:49:43.937Z,1.57
2018-06-25T06:52:11.800Z,1.77
2018-06-25T06:54:39.700Z,1.30
2018-06-25T06:57:07.598Z,1.87
2018-06-25T06:59:35.522Z,1.60
2018-06-25T07:02:03.500Z,2.40
2018-06-25T07:04:31.478Z,1.60
2018-06-25T07:06:59.345Z,1.77
2018-06-25T07:09:27.240Z,2.10
2018-06-25T07:11:55.157Z,3.07
2018-06-25T07:14:23.102Z,2.17
2018-06-25T07:16:51.038Z,1.73
2018-06-25T07:19:18.952Z,1.70
2018-06-25T07:21:46.827Z,1.50
2018-06-25T07:24:14.719Z,1.60
2018-06-25T07:26:42.693Z,1.27
2018-06-25T07:29:10.596Z,1.70
2018-06-25T07:31:38.591Z,1.47
2018-06-25T07:34:06.541Z,1.10
2018-06-25T07:36:34.394Z,1.67
2018-06-25T07:39:02.354Z,2.17
2018-06-25T07:41:30.313Z,1.50
2018-06-25T07:43:58.362Z,2.03
2018-06-25T07:46:26.246Z,2.10
2018-06-25T07:48:54.384Z,2.10
2018-06-25T07:51:22.257Z,1.30
2018-06-25T07:53:50.138Z,1.23
2018-06-25T07:56:18.086Z,1.17
2018-06-25T07:58:46.068Z,1.00
2018-06-25T08:01:13.957Z,1.57
2018-06-25T08:03:41.873Z,2.47
2018-06-25T08:06:09.778Z,1.30
2018-06-25T08:08:37.672Z,1.10
2018-06-25T08:11:05.626Z,1.53
2018-06-25T08:13:33.568Z,1.70
2018-06-25T08:16:01.576Z,1.27
2018-06-25T08:18:29.497Z,2.10
2018-06-25T08:20:57.482Z,1.27
2018-06-25T08:23:25.397Z,1.00
2018-06-25T08:25:53.333Z,1.00
2018-06-25T08:28:21.269Z,1.60
2018-06-25T08:30:49.124Z,1.00
2018-06-25T08:33:16.993Z,1.27
2018-06-25T08:35:44.973Z,1.23
2018-06-25T08:38:12.856Z,1.70
2018-06-25T08:40:40.774Z,2.60
2018-06-25T08:43:08.633Z,1.57
2018-06-25T08:45:36.566Z,1.97
2018-06-25T08:48:05.134Z,1.50
2018-06-25T08:50:33.044Z,1.50
2018-06-25T08:53:00.894Z,1.30
2018-06-25T08:55:28.797Z,1.33
2018-06-25T08:57:56.685Z,1.13
2018-06-25T09:00:24.597Z,1.50
2018-06-25T09:02:52.428Z,1.87
2018-06-25T09:05:20.432Z,0.87
2018-06-25T09:07:48.213Z,1.30
2018-06-25T09:10:16.121Z,0.90
2018-06-25T09:12:43.941Z,1.30
2018-06-25T09:15:11.921Z,1.40
2018-06-25T09:17:39.840Z,1.83
2018-06-25T09:20:07.678Z,2.00
2018-06-25T09:22:35.536Z,1.20
2018-06-25T09:25:03.465Z,2.77
2018-06-25T09:27:36.987Z,1.03
2018-06-25T09:30:06.961Z,3.70
2018-06-25T09:32:34.872Z,8.60
2018-06-25T09:35:03.077Z,0.90
2018-06-25T09:37:31.029Z,1.00
2018-06-25T09:39:58.885Z,4.13
2018-06-25T09:42:26.830Z,0.80
2018-06-25T09:44:54.745Z,4.80
2018-06-25T09:47:22.638Z,4.63
2018-06-25T09:49:50.645Z,0.60
2018-06-25T09:52:18.579Z,2.00
2018-06-25T09:54:46.470Z,0.90
2018-06-25T09:57:14.434Z,0.70
2018-06-25T09:59:42.313Z,1.10
2018-06-25T10:02:10.298Z,1.20
2018-06-25T10:04:38.449Z,1.23
2018-06-25T10:07:06.301Z,0.50
2018-06-25T10:09:34.195Z,1.20
2018-06-25T10:12:02.046Z,1.47
2018-06-25T10:14:29.963Z,0.90
2018-06-25T10:16:57.866Z,2.20
2018-06-25T10:19:25.689Z,0.90
2018-06-25T10:21:53.593Z,1.60
2018-06-25T10:24:21.441Z,0.73
2018-06-25T10:26:49.653Z,0.60
2018-06-25T10:29:17.588Z,1.10
2018-06-25T10:31:45.517Z,0.63
2018-06-25T10:34:13.405Z,0.67
2018-06-25T10:36:41.320Z,0.80
2018-06-25T10:39:10.209Z,0.70
2018-06-25T10:41:38.105Z,1.20
2018-06-25T10:44:08.517Z,0.70
2018-06-25T10:46:36.450Z,1.50
2018-06-25T10:49:11.091Z,0.80
2018-06-25T10:51:39.691Z,3.50
2018-06-25T10:54:09.958Z,1.20
2018-06-25T10:56:37.812Z,0.70
2018-06-25T10:59:08.763Z,1.67
2018-06-25T11:01:39.411Z,1.13
2018-06-25T11:04:09.876Z,0.50
2018-06-25T11:06:40.236Z,0.60
2018-06-25T11:09:12.480Z,0.70
2018-06-25T11:11:43.049Z,0.50
2018-06-25T11:14:15.505Z,1.40
2018-06-25T11:16:49.503Z,0.70
2018-06-25T11:19:24.716Z,2.40
2018-06-25T11:21:53.101Z,0.43
2018-06-25T11:24:22.522Z,0.70
2018-06-25T11:26:50.840Z,0.40
2018-06-25T11:29:18.652Z,0.50
2018-06-25T11:31:46.510Z,0.40
2018-06-25T11:34:14.426Z,0.50
2018-06-25T11:36:42.386Z,0.63
2018-06-25T11:39:11.425Z,0.50
2018-06-25T11:41:39.317Z,1.87
2018-06-25T11:44:07.188Z,1.00
2018-06-25T11:46:35.101Z,3.20
2018-06-25T11:49:03.508Z,1.20
2018-06-25T11:51:31.493Z,0.50
2018-06-25T11:54:00.828Z,0.53
2018-06-25T11:56:28.698Z,2.40
2018-06-25T11:58:56.526Z,0.70
2018-06-25T12:01:24.387Z,0.70
2018-06-25T12:03:52.224Z,1.33
2018-06-25T12:06:20.118Z,0.60
2018-06-25T12:08:48.010Z,0.70
2018-06-25T12:11:15.853Z,0.50
2018-06-25T12:13:52.069Z,1.63
2018-06-25T12:16:20.105Z,1.83
2018-06-25T12:18:48.049Z,0.50
2018-06-25T12:21:15.874Z,0.57
2018-06-25T12:23:43.821Z,2.07
2018-06-25T12:26:14.259Z,0.97
2018-06-25T12:28:42.079Z,0.83
2018-06-25T12:31:09.918Z,1.43
2018-06-25T12:33:37.818Z,0.80
2018-06-25T12:36:09.512Z,0.80
2018-06-25T12:38:37.501Z,0.70
2018-06-25T12:41:05.659Z,0.93
2018-06-25T12:43:33.533Z,1.80
2018-06-25T12:46:03.489Z,3.07
2018-06-25T12:48:31.447Z,1.07
2018-06-25T12:51:01.984Z,0.70
2018-06-25T12:53:32.848Z,0.63
2018-06-25T12:56:01.958Z,1.80
2018-06-25T12:58:29.870Z,0.77
2018-06-25T13:00:57.802Z,1.67
2018-06-25T13:03:26.872Z,0.70
2018-06-25T13:05:56.893Z,0.60
2018-06-25T13:08:27.143Z,0.80
2018-06-25T13:10:56.310Z,1.80
2018-06-25T13:13:24.311Z,0.60
2018-06-25T13:15:53.901Z,0.70
2018-06-25T13:18:22.137Z,0.60
2018-06-25T13:20:51.786Z,0.80
2018-06-25T13:23:19.621Z,0.70
2018-06-25T13:25:48.665Z,0.70
2018-06-25T13:28:16.541Z,4.00
2018-06-25T13:30:44.409Z,0.80
2018-06-25T13:33:12.273Z,1.90
2018-06-25T13:35:40.154Z,0.77
2018-06-25T13:38:09.061Z,0.90
2018-06-25T13:40:36.922Z,0.80
2018-06-25T13:43:05.340Z,0.83
2018-06-25T13:45:41.256Z,0.70
2018-06-25T13:48:09.188Z,0.70
2018-06-25T13:50:42.679Z,1.13
2018-06-25T13:53:10.818Z,0.70
2018-06-25T13:55:38.774Z,1.30
2018-06-25T13:58:08.868Z,1.03
2018-06-25T14:00:38.088Z,0.87
2018-06-25T14:03:06.053Z,2.23
2018-06-25T14:05:33.902Z,0.60
2018-06-25T14:08:01.869Z,0.90
2018-06-25T14:10:29.833Z,0.60
2018-06-25T14:12:57.753Z,3.50
2018-06-25T14:15:25.720Z,1.07
2018-06-25T14:17:53.713Z,0.83
2018-06-25T14:20:21.666Z,0.93
2018-06-25T14:22:49.710Z,0.70
2018-06-25T14:25:27.419Z,0.80
2018-06-25T14:28:01.469Z,0.63
2018-06-25T14:30:35.112Z,0.70
2018-06-25T14:33:03.990Z,0.70
2018-06-25T14:35:32.033Z,1.13
2018-06-25T14:37:59.976Z,0.60
2018-06-25T14:40:27.994Z,0.80
2018-06-25T14:42:55.820Z,0.97
2018-06-25T14:45:23.817Z,1.13
2018-06-25T14:47:51.685Z,1.77
2018-06-25T14:50:19.564Z,1.47
2018-06-25T14:52:47.474Z,1.00
2018-06-25T14:55:15.433Z,1.60
2018-06-25T14:57:43.412Z,1.33
2018-06-25T15:00:15.846Z,1.13
2018-06-25T15:02:43.718Z,0.80
2018-06-25T15:05:11.653Z,0.97
2018-06-25T15:07:39.501Z,3.13
2018-06-25T15:10:07.490Z,0.60
2018-06-25T15:12:35.612Z,3.10
2018-06-25T15:15:03.646Z,0.60
2018-06-25T15:17:31.596Z,1.10
2018-06-25T15:19:59.616Z,1.17
2018-06-25T15:22:27.419Z,0.90
2018-06-25T15:24:55.238Z,0.90
2018-06-25T15:27:23.955Z,3.63
2018-06-25T15:29:51.856Z,1.80
2018-06-25T15:32:19.725Z,0.83
2018-06-25T15:34:47.569Z,0.70
2018-06-25T15:37:15.441Z,0.80
2018-06-25T15:39:43.293Z,0.90
2018-06-25T15:42:11.218Z,0.97
2018-06-25T15:44:39.100Z,1.10
2018-06-25T15:47:07.047Z,2.00
2018-06-25T15:49:35.022Z,0.93
2018-06-25T15:52:02.864Z,0.60
2018-06-25T15:54:30.893Z,0.77
2018-06-25T15:56:58.844Z,0.70
2018-06-25T15:59:26.704Z,1.23
2018-06-25T16:01:54.628Z,1.60
2018-06-25T16:04:22.445Z,0.70
2018-06-25T16:06:50.499Z,0.80
2018-06-25T16:09:18.358Z,0.80
2018-06-25T16:11:46.204Z,1.80
2018-06-25T16:14:14.243Z,0.90
2018-06-25T16:16:42.148Z,1.53
2018-06-25T16:19:10.044Z,0.93
2018-06-25T16:21:39.580Z,1.13
2018-06-25T16:24:07.830Z,1.10
2018-06-25T16:26:35.746Z,0.97
2018-06-25T16:29:03.728Z,0.70
2018-06-25T16:31:31.640Z,2.47
2018-06-25T16:33:59.569Z,1.00
2018-06-25T16:36:27.754Z,1.77
2018-06-25T16:38:55.687Z,1.37
2018-06-25T16:41:23.821Z,1.67
2018-06-25T16:43:51.754Z,3.27
2018-06-25T16:46:19.712Z,1.37
2018-06-25T16:48:47.609Z,2.07
2018-06-25T16:51:15.544Z,1.50
2018-06-25T16:53:43.469Z,1.77
2018-06-25T16:56:12.080Z,1.40
2018-06-25T16:58:43.008Z,1.53
2018-06-25T17:01:13.184Z,1.30
2018-06-25T17:03:41.122Z,2.20
2018-06-25T17:06:08.997Z,1.60
2018-06-25T17:08:36.877Z,1.83
2018-06-25T17:11:04.835Z,2.03
2018-06-25T17:13:32.842Z,3.43
2018-06-25T17:16:00.821Z,2.37
2018-06-25T17:18:28.893Z,1.87
2018-06-25T17:20:56.797Z,1.67
2018-06-25T17:23:24.701Z,2.03
2018-06-25T17:25:52.581Z,2.00
2018-06-25T17:28:20.497Z,3.90
2018-06-25T17:30:48.424Z,2.13
2018-06-25T17:33:16.589Z,3.03
2018-06-25T17:35:44.464Z,2.30
2018-06-25T17:38:12.345Z,4.37
2018-06-25T17:40:40.241Z,2.53
2018-06-25T17:43:08.538Z,2.87
2018-06-25T17:45:36.501Z,2.47
2018-06-25T17:48:04.756Z,3.23
2018-06-25T17:50:32.640Z,3.20
2018-06-25T17:53:00.692Z,3.40
2018-06-25T17:55:28.777Z,3.70
2018-06-25T17:57:57.616Z,3.17
2018-06-25T18:00:25.654Z,3.30
2018-06-25T18:02:57.795Z,3.63
2018-06-25T18:05:25.968Z,4.10
2018-06-25T18:07:53.917Z,3.70
2018-06-25T18:10:22.706Z,3.30
2018-06-25T18:12:50.784Z,3.43
2018-06-25T18:15:19.524Z,4.07
2018-06-25T18:17:47.449Z,6.20
2018-06-25T18:20:15.407Z,5.03
2018-06-25T18:22:43.335Z,4.40
2018-06-25T18:25:11.197Z,5.57
2018-06-25T18:27:40.117Z,4.30
2018-06-25T18:30:08.072Z,4.87
2018-06-25T18:32:35.961Z,5.03
2018-06-25T18:35:04.092Z,4.13
2018-06-25T18:37:32.214Z,4.00
2018-06-25T18:40:00.559Z,6.03
2018-06-25T18:42:28.478Z,7.67
2018-06-25T18:44:56.502Z,4.73
2018-06-25T18:47:24.686Z,4.03
2018-06-25T18:49:52.613Z,5.27
2018-06-25T18:52:20.554Z,5.50
2018-06-25T18:54:48.733Z,6.60
2018-06-25T18:57:17.560Z,4.43
2018-06-25T18:59:45.457Z,5.20
2018-06-25T19:02:13.456Z,4.37
2018-06-25T19:04:41.426Z,4.50
2018-06-25T19:07:09.485Z,8.17
2018-06-25T19:09:43.742Z,3.97
2018-06-25T19:12:18.032Z,4.90
2018-06-25T19:14:47.323Z,5.80
2018-06-25T19:17:15.157Z,5.37
2018-06-25T19:19:43.092Z,4.30
2018-06-25T19:22:13.978Z,5.30
2018-06-25T19:24:42.041Z,5.07
2018-06-25T19:27:10.040Z,5.70
2018-06-25T19:29:37.901Z,5.00
2018-06-25T19:32:06.196Z,4.47
2018-06-25T19:34:34.105Z,4.37
2018-06-25T19:37:01.945Z,4.63
2018-06-25T19:39:29.965Z,6.00
2018-06-25T19:41:58.109Z,5.97
2018-06-25T19:44:25.966Z,6.30
2018-06-25T19:46:54.135Z,4.73
2018-06-25T19:49:21.877Z,5.03
2018-06-25T19:51:50.488Z,5.60
2018-06-25T19:54:18.413Z,4.50
2018-06-25T19:56:46.357Z,4.13
2018-06-25T19:59:14.285Z,7.90
2018-06-25T20:01:42.160Z,6.30
2018-06-25T20:04:10.046Z,5.10
2018-06-25T20:06:37.954Z,4.93
2018-06-25T20:09:09.726Z,4.87
2018-06-25T20:11:37.669Z,5.83
2018-06-25T20:14:06.036Z,5.57
2018-06-25T20:16:35.064Z,7.60
2018-06-25T20:19:05.104Z,5.17
2018-06-25T20:21:34.458Z,7.93
2018-06-25T20:24:10.197Z,5.23
2018-06-25T20:26:40.360Z,4.40
2018-06-25T20:29:08.758Z,4.37
2018-06-25T20:31:40.287Z,4.47
2018-06-25T20:34:09.937Z,4.40
2018-06-25T20:36:38.789Z,4.63
2018-06-25T20:39:09.752Z,5.70
2018-06-25T20:41:44.260Z,3.70
2018-06-25T20:44:12.429Z,4.20
2018-06-25T20:46:40.474Z,4.30
2018-06-25T20:49:08.898Z,5.50
2018-06-25T20:51:39.924Z,8.53
2018-06-25T20:54:08.646Z,5.67
2018-06-25T20:56:38.164Z,4.80
2018-06-25T20:59:06.161Z,5.10
2018-06-25T21:01:34.209Z,6.70
2018-06-25T21:04:02.098Z,4.93
2018-06-25T21:06:34.698Z,6.93
2018-06-25T21:09:06.698Z,4.40
2018-06-25T21:11:36.084Z,5.93
2018-06-25T21:14:04.076Z,7.57
2018-06-25T21:16:34.442Z,4.53
2018-06-25T21:19:04.469Z,4.90
2018-06-25T21:21:32.472Z,5.87
2018-06-25T21:24:01.709Z,4.80
2018-06-25T21:26:31.804Z,5.17
2018-06-25T21:29:06.211Z,6.87
2018-06-25T21:31:34.293Z,6.90
2018-06-25T21:34:02.233Z,4.97
2018-06-25T21:36:30.189Z,7.40
2018-06-25T21:38:59.096Z,8.27
2018-06-25T21:41:32.856Z,5.23
2018-06-25T21:44:07.414Z,6.47
2018-06-25T21:46:37.735Z,6.97
2018-06-25T21:49:07.828Z,5.13
2018-06-25T21:51:36.175Z,6.73
2018-06-25T21:54:05.010Z,9.03
2018-06-25T21:56:32.887Z,8.40
2018-06-25T21:59:00.872Z,7.47
2018-06-25T22:01:34.450Z,8.93
2018-06-25T22:04:03.363Z,9.80
2018-06-25T22:06:33.720Z,8.53
2018-06-25T22:09:01.845Z,7.20
2018-06-25T22:11:32.645Z,8.73
2018-06-25T22:14:00.974Z,6.97
2018-06-25T22:16:31.671Z,9.00
2018-06-25T22:19:00.092Z,8.43
2018-06-25T22:21:28.325Z,11.90
2018-06-25T22:23:57.141Z,8.70
2018-06-25T22:26:31.470Z,7.97
2018-06-25T22:29:01.069Z,8.37
2018-06-25T22:31:29.313Z,7.37
2018-06-25T22:34:01.876Z,7.20
2018-06-25T22:36:30.712Z,7.83
2018-06-25T22:38:58.888Z,7.73
2018-06-25T22:41:26.824Z,11.33
2018-06-25T22:44:06.225Z,8.20
2018-06-25T22:46:41.731Z,9.17
2018-06-25T22:49:10.830Z,7.77
2018-06-25T22:51:41.525Z,7.67
2018-06-25T22:54:11.186Z,9.00
2018-06-25T22:56:39.125Z,8.20
2018-06-25T22:59:07.155Z,7.87
2018-06-25T23:01:35.364Z,8.33
2018-06-25T23:04:04.494Z,9.30
2018-06-25T23:06:35.408Z,8.07
2018-06-25T23:09:06.869Z,8.50
2018-06-25T23:11:34.917Z,9.80
2018-06-25T23:14:03.228Z,9.90
2018-06-25T23:16:31.302Z,10.43
2018-06-25T23:18:59.176Z,9.20
2018-06-25T23:21:27.237Z,8.80
2018-06-25T23:23:55.101Z,8.63
2018-06-25T23:26:23.049Z,7.53
2018-06-25T23:28:52.140Z,9.17
2018-06-25T23:31:20.073Z,9.03
2018-06-25T23:33:47.970Z,9.70
2018-06-25T23:36:15.852Z,8.93
2018-06-25T23:38:43.803Z,8.77
2018-06-25T23:41:11.650Z,9.17
2018-06-25T23:43:39.569Z,9.83
2018-06-25T23:46:07.457Z,10.33
2018-06-25T23:48:35.386Z,9.77
2018-06-25T23:51:03.343Z,9.20
2018-06-25T23:53:31.204Z,10.13
2018-06-25T23:55:59.045Z,8.87
2018-06-25T23:58:26.934Z,9.40
